Anvik Airport Anvik US
ICAO: PANV
IATA:
Category: Medium
Scheduled Services:

Elevation: 291 ft
TransAlt. 18000 ft.

Airport Communications:
AWOS 3:133.55
ANCHORAGE CNTR:135.7
KENAI RDO:122.4
CTAF/UNICOM:122.7

PANV Zoom In..

Runways:

(A) RW 17 length 4000 ft width 75 ft
---- / hdg 172

(B) RW 35 length 4000 ft width 75 ft
---- / hdg 352

Location; PANV
Day. 19 / Time. 19.56 Zulu
* Altimeter: 30.23
* Temperature: 13° c. 55.4°f.
* Wind from: 270° Speed 06 kn.
Dewpoint: 09° c.
Visibility: 10 Statute Miles.
Clouds: Overcast 1700 ft.

PANV 191956Z AUTO 27006KT 10SM OVC017 13/09 A3023 RMK AO2 SLP258 T01280089


Wind From 270°
Speed 06 kn.

 
 
jpsmedia.com for Web Design worldairports.se 2018   terms of use